Time;durP1;ratioP1;P1;durP2;ratioP2;P2;SDS_P1;SDS_P2;PMS_P1;PMS_P2;Temp;Humidity;BMP_temperature;BMP_pressure;BME280_temperature;BME280_humidity;BME280_pressure;Samples;Min_cycle;Max_cycle;Signal;HPM_P1;HPM_P2
2022/06/15 00:02:07;;;;;;;9.30;4.50;;;13.90;99.90;;;;;;5056603;28;20021;-84
2022/06/15 00:04:33;;;;;;;6.15;3.80;;;13.80;99.90;;;;;;5056566;28;20020;-84
2022/06/15 00:07:00;;;;;;;5.13;2.70;;;13.70;99.90;;;;;;5056575;28;20496;-84
2022/06/15 00:09:26;;;;;;;3.90;2.70;;;13.60;99.90;;;;;;5056543;28;20439;-84
2022/06/15 00:11:52;;;;;;;3.70;2.40;;;13.70;99.90;;;;;;5056498;28;20020;-84
2022/06/15 00:14:24;;;;;;;3.75;2.30;;;13.70;99.90;;;;;;5056410;28;20028;-84
2022/06/15 00:16:50;;;;;;;4.97;2.75;;;13.60;99.90;;;;;;5056589;28;20025;-84
2022/06/15 00:19:16;;;;;;;5.03;3.00;;;13.60;99.90;;;;;;5074775;28;20069;-84
2022/06/15 00:21:42;;;;;;;5.35;3.28;;;13.50;99.90;;;;;;5056234;28;20500;-84
2022/06/15 00:24:08;;;;;;;5.55;3.10;;;13.50;99.90;;;;;;5056166;28;20029;-84
2022/06/15 00:26:34;;;;;;;5.63;3.25;;;13.50;99.90;;;;;;5056113;28;20028;-84
2022/06/15 00:29:00;;;;;;;4.95;3.10;;;13.60;99.90;;;;;;5056189;28;20117;-84
2022/06/15 00:31:25;;;;;;;7.03;3.13;;;13.50;99.90;;;;;;5074154;28;20052;-84
2022/06/15 00:33:51;;;;;;;3.83;2.40;;;13.50;99.90;;;;;;5056052;28;20111;-84
2022/06/15 00:36:19;;;;;;;3.47;1.98;;;13.50;99.90;;;;;;5074288;28;20443;-84
2022/06/15 00:38:48;;;;;;;3.53;2.13;;;13.30;99.90;;;;;;5073957;28;20059;-84
2022/06/15 00:41:17;;;;;;;4.30;2.55;;;13.20;99.90;;;;;;5055582;28;20032;-84
2022/06/15 00:43:49;;;;;;;4.22;2.00;;;13.10;99.90;;;;;;5074017;28;20365;-85
2022/06/15 00:46:23;;;;;;;3.28;1.92;;;13.10;99.90;;;;;;5055953;28;20025;-84
2022/06/15 00:49:05;;;;;;;4.65;2.50;;;13.10;99.90;;;;;;5056134;28;20012;-84
2022/06/15 00:51:31;;;;;;;3.72;2.20;;;13.10;99.90;;;;;;5056051;28;20431;-84
2022/06/15 00:53:59;;;;;;;3.92;2.03;;;13.00;99.90;;;;;;5056379;28;20028;-84
2022/06/15 00:56:27;;;;;;;4.95;2.40;;;13.00;99.90;;;;;;5073686;28;20060;-84
2022/06/15 00:58:58;;;;;;;4.70;2.58;;;13.10;99.90;;;;;;5055659;28;20027;-84
2022/06/15 01:01:24;;;;;;;4.65;2.47;;;13.10;99.90;;;;;;5073600;28;20039;-84
2022/06/15 01:03:52;;;;;;;4.57;2.35;;;13.10;99.90;;;;;;5075123;28;20028;-84
2022/06/15 01:06:48;;;;;;;5.80;2.47;;;13.10;99.90;;;;;;5058436;28;20027;-84
2022/06/15 01:09:38;;;;;;;3.22;2.40;;;13.10;99.90;;;;;;5036352;28;20021;-84
2022/06/15 01:12:22;;;;;;;3.63;2.25;;;13.00;99.90;;;;;;5053834;28;20025;-84
2022/06/15 01:15:05;;;;;;;3.83;2.25;;;12.90;99.90;;;;;;5035482;28;20021;-84
2022/06/15 01:17:49;;;;;;;3.13;2.17;;;12.90;99.90;;;;;;5035501;28;20025;-84
2022/06/15 01:20:43;;;;;;;4.05;2.30;;;12.90;99.90;;;;;;5035448;28;20036;-84
2022/06/15 01:23:40;;;;;;;3.97;2.28;;;12.90;99.90;;;;;;5035988;28;20021;-84
2022/06/15 01:26:43;;;;;;;5.05;2.92;;;12.70;99.90;;;;;;5053165;28;20032;-84
2022/06/15 01:29:18;;;;;;;4.95;2.80;;;12.70;99.90;;;;;;5035525;28;20453;-84
2022/06/15 01:32:01;;;;;;;3.35;2.33;;;12.70;99.90;;;;;;5052900;28;20040;-84
2022/06/15 01:34:40;;;;;;;5.20;2.47;;;12.70;99.90;;;;;;5052956;28;20355;-84
2022/06/15 01:37:06;;;;;;;4.93;2.78;;;12.70;99.90;;;;;;5034892;28;20017;-84
2022/06/15 01:39:57;;;;;;;3.88;2.42;;;12.70;99.90;;;;;;5034720;28;20078;-84
2022/06/15 01:42:47;;;;;;;3.85;2.55;;;12.70;99.90;;;;;;5035224;28;20033;-83
2022/06/15 01:45:18;;;;;;;5.20;2.22;;;12.60;99.90;;;;;;5035214;28;20025;-83
2022/06/15 01:47:46;;;;;;;5.00;2.60;;;12.60;99.90;;;;;;5053421;28;20043;-83
2022/06/15 01:50:25;;;;;;;4.32;2.30;;;12.60;99.90;;;;;;5035304;28;20475;-83
2022/06/15 01:52:59;;;;;;;3.35;2.53;;;12.60;99.90;;;;;;5038358;28;20025;-83
2022/06/15 01:55:38;;;;;;;4.38;3.17;;;12.50;99.90;;;;;;5039124;28;20060;-84
2022/06/15 01:58:08;;;;;;;4.50;3.60;;;12.50;99.90;;;;;;5057501;28;20028;-83
2022/06/15 02:00:34;;;;;;;6.00;3.57;;;12.60;99.90;;;;;;5038929;28;20029;-84
2022/06/15 02:03:00;;;;;;;4.32;2.72;;;12.50;99.90;;;;;;5057335;28;20657;-84
2022/06/15 02:05:30;;;;;;;4.03;2.60;;;12.50;99.90;;;;;;5056789;28;20063;-84
2022/06/15 02:07:56;;;;;;;4.35;2.60;;;12.50;99.90;;;;;;5039009;28;20048;-84
2022/06/15 02:10:27;;;;;;;4.32;2.40;;;12.50;99.90;;;;;;5039099;28;20063;-84
2022/06/15 02:13:20;;;;;;;5.40;2.30;;;12.50;99.90;;;;;;5056992;28;20025;-84
2022/06/15 02:15:51;;;;;;;4.13;2.72;;;12.30;99.90;;;;;;5054777;28;20124;-84
2022/06/15 02:18:20;;;;;;;3.35;2.42;;;12.20;99.90;;;;;;5038692;28;20481;-83
2022/06/15 02:20:54;;;;;;;4.50;2.83;;;12.10;99.90;;;;;;5056410;28;20037;-83
2022/06/15 02:23:22;;;;;;;5.95;3.03;;;12.10;99.90;;;;;;5038607;28;20409;-83
2022/06/15 02:25:50;;;;;;;3.83;2.47;;;12.10;99.90;;;;;;5038378;28;20036;-84
2022/06/15 02:28:18;;;;;;;4.80;2.38;;;12.00;99.90;;;;;;5056330;28;20100;-83
2022/06/15 02:30:44;;;;;;;4.18;2.30;;;12.10;99.90;;;;;;5038463;28;20029;-84
2022/06/15 02:33:31;;;;;;;4.32;2.47;;;12.10;99.90;;;;;;5056234;28;20385;-83
2022/06/15 02:35:58;;;;;;;7.20;2.60;;;12.10;99.90;;;;;;5038163;28;20021;-84
2022/06/15 02:38:25;;;;;;;3.22;2.53;;;12.10;99.90;;;;;;5056427;28;20094;-84
2022/06/15 02:40:51;;;;;;;4.47;2.75;;;12.10;99.90;;;;;;5055926;28;20477;-84
2022/06/15 02:43:21;;;;;;;5.07;2.63;;;12.10;99.90;;;;;;5056303;28;20032;-83
2022/06/15 02:45:48;;;;;;;3.72;2.60;;;12.10;99.90;;;;;;5056319;28;20100;-83
2022/06/15 02:48:15;;;;;;;5.35;2.53;;;12.00;99.90;;;;;;5038172;28;20032;-83
2022/06/15 02:50:47;;;;;;;5.07;2.30;;;12.00;99.90;;;;;;5056027;28;20029;-83
2022/06/15 02:53:20;;;;;;;3.80;2.70;;;12.00;99.90;;;;;;5056157;28;20025;-83
2022/06/15 02:55:47;;;;;;;4.43;2.42;;;11.90;99.90;;;;;;5038159;28;20082;-84
2022/06/15 02:58:21;;;;;;;4.97;2.55;;;12.00;99.90;;;;;;5038820;28;20110;-83
2022/06/15 03:00:47;;;;;;;5.68;3.10;;;12.00;99.90;;;;;;5055842;28;20470;-83
2022/06/15 03:03:13;;;;;;;3.20;2.55;;;12.00;99.90;;;;;;5054887;28;20036;-83
2022/06/15 03:05:41;;;;;;;4.35;2.67;;;12.00;99.90;;;;;;5037793;28;20442;-83
2022/06/15 03:08:06;;;;;;;3.20;2.38;;;11.90;99.90;;;;;;5037790;28;20071;-84
2022/06/15 03:10:32;;;;;;;4.22;2.30;;;11.90;99.90;;;;;;5038330;28;20033;-83
2022/06/15 03:12:58;;;;;;;4.60;2.75;;;11.80;99.90;;;;;;5038032;28;20021;-82
2022/06/15 03:15:24;;;;;;;3.97;2.65;;;11.70;99.90;;;;;;5037873;28;20062;-83
2022/06/15 03:17:52;;;;;;;3.67;2.50;;;11.70;99.90;;;;;;5056253;28;20029;-83
2022/06/15 03:20:18;;;;;;;4.18;2.50;;;11.70;99.90;;;;;;5055387;28;20424;-82
2022/06/15 03:22:43;;;;;;;3.88;2.47;;;11.60;99.90;;;;;;5037586;28;20029;-84
2022/06/15 03:25:10;;;;;;;3.58;2.63;;;11.50;99.90;;;;;;5037521;28;20028;-84
2022/06/15 03:27:36;;;;;;;4.78;3.05;;;11.50;99.90;;;;;;5055267;28;20025;-84
2022/06/15 03:30:04;;;;;;;4.68;2.83;;;11.40;99.90;;;;;;5037579;28;20029;-84
2022/06/15 03:32:30;;;;;;;6.00;2.83;;;11.40;99.90;;;;;;5037293;28;20040;-84
2022/06/15 03:34:55;;;;;;;3.92;2.75;;;11.40;99.90;;;;;;5037216;28;20025;-84
2022/06/15 03:37:21;;;;;;;4.63;2.78;;;11.40;99.90;;;;;;5055118;28;20075;-84
2022/06/15 03:39:47;;;;;;;4.68;3.00;;;11.40;99.90;;;;;;5055067;28;20055;-84
2022/06/15 03:42:22;;;;;;;4.93;2.95;;;11.40;99.90;;;;;;5055640;28;20021;-84
2022/06/15 03:44:49;;;;;;;3.63;2.75;;;11.50;99.90;;;;;;5037900;28;20366;-84
2022/06/15 03:47:18;;;;;;;4.80;3.13;;;11.50;99.90;;;;;;5037547;28;20051;-84
2022/06/15 03:49:45;;;;;;;5.50;3.13;;;11.50;99.90;;;;;;5037798;28;20025;-84
2022/06/15 03:52:11;;;;;;;6.88;3.47;;;11.50;99.90;;;;;;5055615;28;20032;-83
2022/06/15 03:54:37;;;;;;;4.60;3.30;;;11.50;99.90;;;;;;5054659;28;20017;-84
2022/06/15 03:57:03;;;;;;;5.63;2.72;;;11.50;99.90;;;;;;5037012;28;20381;-84
2022/06/15 03:59:30;;;;;;;4.72;2.90;;;11.50;99.90;;;;;;5055461;28;20389;-83
2022/06/15 04:01:57;;;;;;;4.63;3.47;;;11.40;99.90;;;;;;5054802;28;20060;-83
2022/06/15 04:04:22;;;;;;;3.95;2.65;;;11.40;99.90;;;;;;5048748;23;20431;-70
2022/06/15 04:06:49;;;;;;;6.25;2.92;;;11.40;99.90;;;;;;5074282;28;20021;-70
2022/06/15 04:09:22;;;;;;;6.15;3.40;;;11.40;99.90;;;;;;5074222;28;20488;-70
2022/06/15 04:12:10;;;;;;;3.90;2.72;;;11.40;99.90;;;;;;5073074;28;20103;-71
2022/06/15 04:14:36;;;;;;;4.13;2.83;;;11.40;99.90;;;;;;5073795;28;20021;-71
2022/06/15 04:17:04;;;;;;;3.90;3.10;;;11.40;99.90;;;;;;5071865;28;20029;-71
2022/06/15 04:19:32;;;;;;;3.55;2.63;;;11.40;99.90;;;;;;5073974;28;20025;-71
2022/06/15 04:21:58;;;;;;;4.63;3.05;;;11.40;99.90;;;;;;5073993;28;20028;-71
2022/06/15 04:24:27;;;;;;;5.78;2.90;;;11.40;99.90;;;;;;5073878;28;20024;-71
2022/06/15 04:26:53;;;;;;;8.20;3.00;;;11.50;99.90;;;;;;5073751;28;20024;-71
2022/06/15 04:29:20;;;;;;;6.18;3.30;;;11.50;99.90;;;;;;5055658;28;20025;-70
2022/06/15 04:31:46;;;;;;;5.10;3.25;;;11.50;99.90;;;;;;5071663;28;20408;-71
2022/06/15 04:34:12;;;;;;;4.80;3.33;;;11.50;99.90;;;;;;5073578;28;20495;-70
2022/06/15 04:36:40;;;;;;;5.00;2.92;;;11.50;99.90;;;;;;5073711;28;20052;-70
2022/06/15 04:39:08;;;;;;;5.35;3.60;;;11.50;99.90;;;;;;5073755;28;20032;-70
2022/06/15 04:41:36;;;;;;;5.60;3.60;;;11.50;99.90;;;;;;5073847;28;20048;-70
2022/06/15 04:44:04;;;;;;;4.97;2.83;;;11.50;99.90;;;;;;5073318;28;20021;-70
2022/06/15 04:46:30;;;;;;;5.20;3.33;;;11.50;99.90;;;;;;5073932;28;20415;-70
2022/06/15 04:48:56;;;;;;;7.60;3.63;;;11.60;99.90;;;;;;5073949;28;20021;-71
2022/06/15 04:51:25;;;;;;;7.40;3.83;;;11.60;99.90;;;;;;5055703;28;20077;-71
2022/06/15 04:53:53;;;;;;;8.15;4.00;;;11.60;99.90;;;;;;5073855;28;20032;-70
2022/06/15 04:56:19;;;;;;;7.60;4.18;;;11.60;99.90;;;;;;5055402;28;20460;-70
2022/06/15 04:58:46;;;;;;;5.30;3.58;;;11.60;99.90;;;;;;5073287;28;20024;-70
2022/06/15 05:01:13;;;;;;;6.35;3.65;;;11.70;99.90;;;;;;5073375;28;20020;-71
2022/06/15 05:03:40;;;;;;;5.85;3.80;;;11.70;99.90;;;;;;5074010;28;20047;-70
2022/06/15 05:06:13;;;;;;;6.35;4.13;;;11.80;99.90;;;;;;5073242;28;20025;-71
2022/06/15 05:08:39;;;;;;;6.60;4.05;;;11.80;99.90;;;;;;5054652;28;20499;-70
2022/06/15 05:11:05;;;;;;;9.75;4.47;;;11.80;99.90;;;;;;5073626;28;20029;-70
2022/06/15 05:13:31;;;;;;;9.52;5.03;;;11.90;99.90;;;;;;5073101;28;20021;-71
2022/06/15 05:15:57;;;;;;;6.65;4.22;;;11.90;99.90;;;;;;5055286;28;20047;-71
2022/06/15 05:18:22;;;;;;;10.07;5.40;;;12.00;99.90;;;;;;5073268;28;20103;-70
2022/06/15 05:20:48;;;;;;;6.97;4.25;;;12.00;99.90;;;;;;5073144;28;20048;-71
2022/06/15 05:23:16;;;;;;;9.68;5.05;;;12.10;99.90;;;;;;5073219;28;20086;-71
2022/06/15 05:25:42;;;;;;;6.28;4.70;;;12.10;99.90;;;;;;5073591;28;20361;-70
2022/06/15 05:28:09;;;;;;;7.57;4.30;;;12.30;99.90;;;;;;5079413;28;20018;-71
2022/06/15 05:30:35;;;;;;;7.43;4.68;;;12.30;99.90;;;;;;5079819;28;20024;-70
2022/06/15 05:33:02;;;;;;;7.97;4.55;;;12.40;99.90;;;;;;5062004;28;20024;-70
2022/06/15 05:35:28;;;;;;;6.85;5.13;;;12.50;99.90;;;;;;5079739;28;20029;-71
2022/06/15 05:37:54;;;;;;;7.45;4.35;;;12.60;99.90;;;;;;5079781;28;20029;-71
2022/06/15 05:40:20;;;;;;;6.40;4.20;;;12.70;99.90;;;;;;5079899;28;20028;-71
2022/06/15 05:42:45;;;;;;;6.93;4.30;;;12.90;99.90;;;;;;5080236;28;20073;-71
2022/06/15 05:45:11;;;;;;;6.00;4.13;;;12.90;99.90;;;;;;5079464;28;20392;-71
2022/06/15 05:47:37;;;;;;;6.47;4.53;;;13.00;99.90;;;;;;5079737;28;20062;-71
2022/06/15 05:50:03;;;;;;;7.60;4.68;;;13.10;99.90;;;;;;5061671;28;20031;-71
2022/06/15 05:52:29;;;;;;;7.32;5.07;;;13.20;99.90;;;;;;5079947;28;20387;-71
2022/06/15 05:54:58;;;;;;;8.18;5.00;;;13.40;99.90;;;;;;5079592;28;20039;-71
2022/06/15 05:57:24;;;;;;;7.50;4.57;;;13.50;99.90;;;;;;5079639;28;20032;-71
2022/06/15 05:59:51;;;;;;;7.20;4.60;;;13.60;99.90;;;;;;5079361;28;20051;-71
2022/06/15 06:02:19;;;;;;;6.72;4.55;;;13.70;99.90;;;;;;5061978;28;20054;-71
2022/06/15 06:04:45;;;;;;;8.23;4.65;;;13.90;99.90;;;;;;5061390;28;20032;-71
2022/06/15 06:07:11;;;;;;;8.57;4.80;;;14.10;99.90;;;;;;5079610;28;20017;-71
2022/06/15 06:09:38;;;;;;;8.80;4.90;;;14.20;99.90;;;;;;5079772;28;20375;-71
2022/06/15 06:12:04;;;;;;;10.65;5.15;;;14.40;99.90;;;;;;5061548;28;20560;-71
2022/06/15 06:14:30;;;;;;;9.13;5.40;;;14.60;99.90;;;;;;5079183;28;20074;-71
2022/06/15 06:16:56;;;;;;;7.82;4.88;;;14.70;99.90;;;;;;5079465;28;20422;-71
2022/06/15 06:19:21;;;;;;;7.30;4.75;;;14.90;99.90;;;;;;5079409;28;20025;-71
2022/06/15 06:21:47;;;;;;;7.15;4.72;;;15.00;99.90;;;;;;5079361;28;20059;-71
2022/06/15 06:24:13;;;;;;;10.30;4.63;;;15.00;99.90;;;;;;5079344;28;20027;-71
2022/06/15 06:26:39;;;;;;;7.28;5.30;;;15.10;99.90;;;;;;5079368;28;20024;-71
2022/06/15 06:29:06;;;;;;;6.68;5.13;;;15.10;99.90;;;;;;5061192;28;20024;-71
2022/06/15 06:31:33;;;;;;;8.15;4.78;;;15.20;99.90;;;;;;5079372;28;20033;-71
2022/06/15 06:33:59;;;;;;;7.70;4.57;;;15.30;99.90;;;;;;5079326;28;20153;-71
2022/06/15 06:36:29;;;;;;;6.88;4.63;;;15.40;99.90;;;;;;5079235;28;20025;-71
2022/06/15 06:38:55;;;;;;;6.60;5.20;;;15.40;99.90;;;;;;5057768;28;20024;-71
2022/06/15 06:41:24;;;;;;;6.00;4.45;;;15.60;99.90;;;;;;5075985;28;20480;-70
2022/06/15 06:43:50;;;;;;;10.50;5.13;;;15.60;99.90;;;;;;5076049;28;20056;-71
2022/06/15 06:46:16;;;;;;;7.95;4.68;;;15.70;99.90;;;;;;5075963;28;20024;-70
2022/06/15 06:48:42;;;;;;;6.90;4.68;;;15.90;99.90;;;;;;5075982;28;20115;-71
2022/06/15 06:51:07;;;;;;;6.85;4.82;;;15.90;99.90;;;;;;5075969;28;20104;-71
2022/06/15 06:53:35;;;;;;;10.30;5.00;;;16.00;99.90;;;;;;5075775;28;20435;-71
2022/06/15 06:56:03;;;;;;;5.70;4.10;;;16.10;99.90;;;;;;5075625;28;20032;-70
2022/06/15 06:58:29;;;;;;;8.07;4.03;;;16.20;99.90;;;;;;5057565;28;20021;-71
2022/06/15 07:00:55;;;;;;;7.30;4.28;;;16.40;99.90;;;;;;5075638;28;20033;-71
2022/06/15 07:03:21;;;;;;;8.00;4.38;;;16.70;99.90;;;;;;5075719;28;20108;-71
2022/06/15 07:05:46;;;;;;;9.75;4.15;;;16.90;99.90;;;;;;5075520;28;20032;-71
2022/06/15 07:08:13;;;;;;;6.05;3.65;;;17.10;99.90;;;;;;5075580;28;20099;-70
2022/06/15 07:10:40;;;;;;;7.07;3.80;;;17.30;99.90;;;;;;5075588;28;20055;-70
2022/06/15 07:13:06;;;;;;;6.32;3.60;;;17.50;99.90;;;;;;5075481;28;20035;-70
2022/06/15 07:15:31;;;;;;;4.65;3.65;;;17.70;99.90;;;;;;5075246;28;20029;-70
2022/06/15 07:17:58;;;;;;;6.57;3.55;;;17.70;99.90;;;;;;5075374;28;20093;-70
2022/06/15 07:20:25;;;;;;;6.38;3.58;;;17.70;99.90;;;;;;5075602;28;20017;-71
2022/06/15 07:22:51;;;;;;;5.95;3.97;;;17.90;99.90;;;;;;5075643;28;20025;-71
2022/06/15 07:25:16;;;;;;;6.90;3.72;;;18.10;99.90;;;;;;5075116;28;20029;-71
2022/06/15 07:27:43;;;;;;;5.70;3.65;;;18.20;99.90;;;;;;5075507;28;20025;-71
2022/06/15 07:30:12;;;;;;;7.05;3.90;;;18.20;99.90;;;;;;5074948;28;20081;-71
2022/06/15 07:32:40;;;;;;;6.75;3.92;;;18.30;99.90;;;;;;5075101;28;20024;-71
2022/06/15 07:35:11;;;;;;;5.57;3.97;;;18.40;99.90;;;;;;5057099;28;20497;-70
2022/06/15 07:37:36;;;;;;;8.25;5.20;;;18.70;99.90;;;;;;5075380;28;20050;-70
2022/06/15 07:40:02;;;;;;;10.20;7.45;;;19.00;99.90;;;;;;5074759;28;20108;-71
2022/06/15 07:42:28;;;;;;;14.60;7.90;;;19.20;99.90;;;;;;5074933;28;20483;-70
2022/06/15 07:44:54;;;;;;;9.27;6.35;;;19.40;99.90;;;;;;5074553;28;20028;-71
2022/06/15 07:50:04;;;;;;;5.78;3.80;;;19.50;99.90;;;;;;5074436;28;20038;-70
2022/06/15 07:52:37;;;;;;;5.30;3.63;;;19.40;99.90;;;;;;5074691;28;20031;-70
2022/06/15 07:55:05;;;;;;;5.28;3.97;;;19.20;99.90;;;;;;5074775;28;20028;-70
2022/06/15 07:57:31;;;;;;;5.63;3.42;;;19.20;99.90;;;;;;5074593;28;20469;-71
2022/06/15 07:59:56;;;;;;;5.88;3.80;;;19.00;99.90;;;;;;5074294;28;20025;-70
2022/06/15 08:02:22;;;;;;;7.85;4.13;;;19.00;99.90;;;;;;5074500;28;20421;-70
2022/06/15 08:04:48;;;;;;;5.50;3.40;;;18.90;99.90;;;;;;5074499;28;20025;-71
2022/06/15 08:07:16;;;;;;;9.80;3.97;;;18.90;99.90;;;;;;5074405;28;20388;-70
2022/06/15 08:09:42;;;;;;;7.47;3.65;;;18.90;99.90;;;;;;5074837;28;20021;-70
2022/06/15 08:12:12;;;;;;;7.55;3.80;;;19.10;99.90;;;;;;5074306;28;20025;-70
2022/06/15 08:14:51;;;;;;;5.82;3.45;;;19.30;99.90;;;;;;5074179;28;20028;-70
2022/06/15 08:17:25;;;;;;;5.20;3.28;;;19.60;99.90;;;;;;5074523;28;20123;-70
2022/06/15 08:20:04;;;;;;;6.55;3.40;;;19.90;99.90;;;;;;5056269;28;20024;-70
2022/06/15 08:22:31;;;;;;;10.02;3.30;;;20.20;99.90;;;;;;5074425;28;20052;-70
2022/06/15 08:24:57;;;;;;;7.13;3.35;;;20.40;99.90;;;;;;5074021;28;20052;-70
2022/06/15 08:27:23;;;;;;;6.32;3.53;;;20.60;99.90;;;;;;5074010;28;20044;-71
2022/06/15 08:29:50;;;;;;;5.00;2.90;;;20.80;98.50;;;;;;5073868;28;20043;-70
2022/06/15 08:32:18;;;;;;;5.22;2.90;;;21.00;98.20;;;;;;5074245;28;20024;-70
2022/06/15 08:34:44;;;;;;;5.60;3.20;;;21.10;97.10;;;;;;5073874;28;20033;-70
2022/06/15 08:37:12;;;;;;;6.38;2.70;;;21.10;96.00;;;;;;5074214;28;20426;-70
2022/06/15 08:39:39;;;;;;;5.95;3.00;;;21.20;96.70;;;;;;5073709;28;20025;-70
2022/06/15 08:42:53;;;;;;;5.18;3.28;;;21.30;97.00;;;;;;5073711;28;20024;-70
2022/06/15 08:45:38;;;;;;;4.60;2.80;;;21.60;96.40;;;;;;5042557;28;20032;-70
2022/06/15 08:48:07;;;;;;;5.70;3.00;;;21.90;95.10;;;;;;5074051;28;20024;-70
2022/06/15 08:50:54;;;;;;;9.90;3.38;;;22.20;93.40;;;;;;5073621;28;20119;-70
2022/06/15 08:53:41;;;;;;;6.47;4.38;;;22.30;92.40;;;;;;5074245;28;20406;-70
2022/06/15 08:56:17;;;;;;;5.80;4.30;;;22.50;91.10;;;;;;5073084;28;20033;-70
2022/06/15 08:59:02;;;;;;;5.32;4.25;;;22.60;91.00;;;;;;5073946;28;20043;-70
2022/06/15 09:01:36;;;;;;;6.28;3.53;;;22.70;91.40;;;;;;5072830;28;20025;-70
2022/06/15 09:04:27;;;;;;;7.57;3.80;;;22.80;90.40;;;;;;5073560;28;20048;-70
2022/06/15 09:07:23;;;;;;;7.00;4.40;;;23.10;89.90;;;;;;5073815;28;20442;-70
2022/06/15 09:10:32;;;;;;;7.82;3.88;;;23.30;89.40;;;;;;5073963;28;20048;-70
2022/06/15 09:13:01;;;;;;;10.02;4.70;;;23.50;88.70;;;;;;5011656;28;20037;-70
2022/06/15 09:15:26;;;;;;;;;;;23.50;90.50;;;;;;5046895;28;19905;-69
2022/06/15 09:17:54;;;;;;;;;;;23.60;91.00;;;;;;5073162;28;20094;-70
2022/06/15 09:20:35;;;;;;;7.10;4.20;;;23.70;88.90;;;;;;5071949;28;20048;-70
2022/06/15 09:23:29;;;;;;;;;;;23.80;84.90;;;;;;5074012;28;20042;-70
2022/06/15 09:26:02;;;;;;;;;;;24.00;86.10;;;;;;5059519;28;19904;-70
2022/06/15 09:28:32;;;;;;;;;;;24.20;83.50;;;;;;5073895;28;20348;-70
2022/06/15 09:31:03;;;;;;;;;;;24.30;82.90;;;;;;5073119;28;19943;-69
2022/06/15 09:33:43;;;;;;;;;;;24.50;82.70;;;;;;5072838;28;19908;-70
2022/06/15 09:36:11;;;;;;;;;;;24.70;82.90;;;;;;5073446;28;19911;-70
2022/06/15 09:38:38;;;;;;;;;;;24.90;83.10;;;;;;5074145;28;20334;-70
2022/06/15 09:41:07;;;;;;;;;;;24.90;83.20;;;;;;5055439;28;19908;-70
2022/06/15 09:43:39;;;;;;;;;;;25.10;82.50;;;;;;5073476;28;19905;-70
2022/06/15 09:46:04;;;;;;;;;;;25.20;80.50;;;;;;5073222;28;19911;-69
2022/06/15 09:48:30;;;;;;;;;;;25.20;78.70;;;;;;5073721;28;19904;-70
2022/06/15 09:51:12;;;;;;;5.32;2.50;;;25.40;77.30;;;;;;5073051;28;20031;-70
2022/06/15 09:53:43;;;;;;;4.68;2.15;;;25.50;78.20;;;;;;5073007;28;20024;-69
2022/06/15 09:56:13;;;;;;;4.47;2.80;;;25.50;74.70;;;;;;5072907;28;20032;-69
2022/06/15 09:58:47;;;;;;;5.65;2.30;;;25.60;74.20;;;;;;5072940;28;20024;-69
2022/06/15 10:01:14;;;;;;;4.38;2.20;;;25.80;71.00;;;;;;5073132;28;20104;-69
2022/06/15 10:03:44;;;;;;;5.32;2.10;;;25.90;70.10;;;;;;5073205;28;20032;-69
2022/06/15 10:06:19;;;;;;;5.30;2.42;;;26.00;69.10;;;;;;5072754;28;20392;-69
2022/06/15 10:08:45;;;;;;;4.68;2.10;;;26.20;66.50;;;;;;5073146;28;20025;-69
2022/06/15 10:11:27;;;;;;;3.20;1.95;;;26.30;65.50;;;;;;5073088;28;20029;-69
2022/06/15 10:13:53;;;;;;;5.20;1.90;;;26.30;64.60;;;;;;5075377;28;20025;-68
2022/06/15 10:16:22;;;;;;;4.97;2.28;;;26.40;66.00;;;;;;5057078;28;20436;-68
2022/06/15 10:18:52;;;;;;;6.15;2.38;;;26.60;68.10;;;;;;5075771;28;20059;-69
2022/06/15 10:21:29;;;;;;;5.80;2.30;;;26.70;65.50;;;;;;5075098;28;20036;-69
2022/06/15 10:24:13;;;;;;;3.47;1.95;;;26.80;67.80;;;;;;5075903;28;20027;-69
2022/06/15 10:26:43;;;;;;;4.38;2.00;;;26.80;68.50;;;;;;5074597;28;20021;-68
2022/06/15 10:29:14;;;;;;;3.58;2.40;;;27.00;70.00;;;;;;5073974;28;20025;-68
2022/06/15 10:31:56;;;;;;;3.97;1.90;;;27.20;67.60;;;;;;5074143;28;20021;-69
2022/06/15 10:34:27;;;;;;;3.53;2.00;;;27.30;66.30;;;;;;5056026;28;20123;-69
2022/06/15 10:36:56;;;;;;;6.03;2.15;;;27.30;62.30;;;;;;5074139;28;20017;-68
2022/06/15 10:39:26;;;;;;;3.78;2.33;;;27.40;65.50;;;;;;5073979;28;20071;-68
2022/06/15 10:42:20;;;;;;;4.20;1.85;;;27.40;65.50;;;;;;5057598;28;20033;-68
2022/06/15 10:45:01;;;;;;;4.45;1.90;;;27.50;63.30;;;;;;5066046;28;20112;-68
2022/06/15 10:47:48;;;;;;;3.53;1.60;;;27.60;62.10;;;;;;5076015;28;20017;-68
2022/06/15 10:50:32;;;;;;;3.53;1.58;;;27.50;59.50;;;;;;5074781;28;20040;-68
2022/06/15 10:53:02;;;;;;;3.28;1.80;;;27.50;61.10;;;;;;5075893;28;20481;-68
2022/06/15 11:04:18;;;;;;;4.25;2.40;;;27.90;61.70;;;;;;5076075;28;20043;-70
2022/06/15 11:07:04;;;;;;;7.55;2.00;;;28.10;61.10;;;;;;5075924;28;20077;-69
2022/06/15 11:09:55;;;;;;;2.63;1.73;;;28.30;60.60;;;;;;5074927;28;20060;-70
2022/06/15 11:12:23;;;;;;;5.72;1.90;;;28.40;59.10;;;;;;5075878;28;20052;-69
2022/06/15 11:15:00;;;;;;;2.63;1.60;;;28.30;59.80;;;;;;5075416;28;20470;-69
2022/06/15 11:20:22;;;;;;;7.47;1.80;;;28.60;61.30;;;;;;5075834;28;20032;-69
2022/06/15 11:22:50;;;;;;;4.30;1.65;;;28.60;58.30;;;;;;5075307;28;20086;-69
2022/06/15 11:25:20;;;;;;;4.95;1.55;;;28.50;57.70;;;;;;5074292;28;20025;-69
2022/06/15 11:28:02;;;;;;;2.63;1.60;;;28.40;57.70;;;;;;5075171;28;20047;-68
2022/06/15 11:30:39;;;;;;;2.60;1.58;;;28.60;56.30;;;;;;5075118;28;20025;-69
2022/06/15 11:33:39;;;;;;;5.15;1.63;;;28.60;58.10;;;;;;5075438;28;20024;-69
2022/06/15 11:36:28;;;;;;;5.18;1.88;;;28.70;56.00;;;;;;5071790;28;20044;-68
2022/06/15 11:39:03;;;;;;;3.90;1.80;;;28.70;59.20;;;;;;5075290;28;20032;-69
2022/06/15 11:41:49;;;;;;;6.55;1.80;;;28.90;57.60;;;;;;5075139;28;20035;-68
2022/06/15 11:44:19;;;;;;;8.00;1.70;;;29.10;57.60;;;;;;5073999;28;20462;-69
2022/06/15 11:47:21;;;;;;;4.85;1.70;;;29.20;55.70;;;;;;5074707;28;20021;-68
2022/06/15 11:49:50;;;;;;;3.15;1.55;;;29.20;55.30;;;;;;5074983;28;20048;-69
2022/06/15 11:52:30;;;;;;;5.32;1.63;;;29.20;54.70;;;;;;5056943;28;20050;-69
2022/06/15 11:55:07;;;;;;;;;;;29.20;56.20;;;;;;5057119;28;20023;-69
2022/06/15 11:57:41;;;;;;;5.15;1.70;;;29.30;54.50;;;;;;5074856;28;20276;-69
2022/06/15 12:00:45;;;;;;;3.13;1.55;;;29.40;53.10;;;;;;5074277;28;20465;-69
2022/06/15 12:03:43;;;;;;;3.88;1.63;;;29.40;53.30;;;;;;5056848;28;20125;-69
2022/06/15 12:06:25;;;;;;;2.42;1.45;;;29.40;55.60;;;;;;5056383;28;20123;-68
2022/06/15 12:09:18;;;;;;;3.50;1.50;;;29.50;53.90;;;;;;5074629;28;20028;-69
2022/06/15 12:15:15;;;;;;;3.25;1.70;;;29.40;52.60;;;;;;5074448;28;20103;-69
2022/06/15 12:17:50;;;;;;;3.92;1.73;;;29.40;56.10;;;;;;5056158;28;20031;-68
2022/06/15 12:20:49;;;;;;;4.50;1.80;;;29.60;53.30;;;;;;5074147;28;20024;-68
2022/06/15 12:23:33;;;;;;;3.08;1.58;;;29.80;55.60;;;;;;5068000;28;20029;-68
2022/06/15 12:26:39;;;;;;;4.90;1.70;;;30.00;54.20;;;;;;5074900;28;20016;-69
2022/06/15 12:29:36;;;;;;;5.78;1.60;;;30.10;50.60;;;;;;5074050;28;20028;-68
2022/06/15 12:32:34;;;;;;;2.95;1.80;;;30.20;50.30;;;;;;5074249;28;20078;-68
2022/06/15 12:35:26;;;;;;;3.95;1.80;;;30.10;52.70;;;;;;5073855;28;20029;-68
2022/06/15 12:38:24;;;;;;;2.10;1.50;;;30.20;53.20;;;;;;5073665;28;20105;-68
2022/06/15 12:41:04;;;;;;;3.30;1.58;;;30.30;52.80;;;;;;5074287;28;20377;-68
2022/06/15 12:43:38;;;;;;;3.08;1.70;;;30.30;53.80;;;;;;5074088;28;20017;-69
2022/06/15 12:46:14;;;;;;;2.97;1.70;;;30.30;52.10;;;;;;5073573;28;20096;-68
2022/06/15 12:48:57;;;;;;;3.33;1.85;;;30.30;52.90;;;;;;5074121;28;20393;-68
2022/06/15 12:51:32;;;;;;;3.72;1.77;;;30.20;50.70;;;;;;5074234;28;20081;-68
2022/06/15 12:54:01;;;;;;;5.07;1.83;;;30.00;53.40;;;;;;5055610;28;20531;-68
2022/06/15 12:56:32;;;;;;;7.72;2.00;;;30.00;52.30;;;;;;5057446;28;20029;-68
2022/06/15 12:59:01;;;;;;;4.53;1.60;;;30.00;51.80;;;;;;5053555;28;20025;-69
2022/06/15 13:01:35;;;;;;;2.35;1.65;;;29.90;53.50;;;;;;5035471;28;20028;-68
2022/06/15 13:04:27;;;;;;;2.38;1.73;;;29.90;52.40;;;;;;5053584;28;20045;-68
2022/06/15 13:07:28;;;;;;;5.25;1.88;;;29.80;52.70;;;;;;5053981;28;20044;-69
2022/06/15 13:10:12;;;;;;;;;;;29.80;54.40;;;;;;5054074;28;20514;-68
2022/06/15 13:12:58;;;;;;;2.65;1.50;;;29.90;53.20;;;;;;5053316;28;19904;-68
2022/06/15 13:15:49;;;;;;;4.38;1.80;;;29.90;52.80;;;;;;5053201;28;20374;-68
2022/06/15 13:18:15;;;;;;;3.30;1.70;;;29.90;53.70;;;;;;5044976;28;20396;-69
2022/06/15 13:20:47;;;;;;;4.60;2.00;;;30.00;53.40;;;;;;5053486;28;20029;-69
2022/06/15 13:23:32;;;;;;;3.22;1.67;;;29.90;52.50;;;;;;5053224;28;20032;-69
2022/06/15 13:26:10;;;;;;;3.00;1.67;;;29.70;52.70;;;;;;5065086;28;20024;-69
2022/06/15 13:28:44;;;;;;;4.03;1.88;;;29.60;52.10;;;;;;5073523;28;20012;-68
2022/06/15 13:31:33;;;;;;;3.00;1.88;;;29.50;52.30;;;;;;5073147;28;20361;-69
2022/06/15 13:34:02;;;;;;;4.85;1.90;;;29.40;54.30;;;;;;5062293;28;20043;-69
2022/06/15 13:36:28;;;;;;;5.05;1.88;;;29.50;54.30;;;;;;5073423;28;20032;-69